Time;durP1;ratioP1;P1;durP2;ratioP2;P2;SDS_P1;SDS_P2;PMS_P1;PMS_P2;Temp;Humidity;BMP_temperature;BMP_pressure;BME280_temperature;BME280_humidity;BME280_pressure;Samples;Min_cycle;Max_cycle;Signal;HPM_P1;HPM_P2
2023/02/15 09:56:43;;;;;;;41.30;19.87;;;;;;;1.31;100.00;100273.06;5109503;28;20568;-86
2023/02/15 09:59:23;;;;;;;40.00;20.43;;;;;;;1.87;100.00;100275.44;5091412;28;39083;-85
2023/02/15 10:02:03;;;;;;;32.13;18.00;;;;;;;2.26;100.00;100269.13;5091665;28;41571;-82
2023/02/15 10:04:49;;;;;;;28.77;16.50;;;;;;;2.82;100.00;100286.19;5090303;28;41878;-83
2023/02/15 10:07:31;;;;;;;28.53;16.77;;;;;;;3.05;98.68;100276.38;5091266;28;40689;-86
2023/02/15 10:10:12;;;;;;;28.53;16.77;;;;;;;3.37;96.40;100277.78;5091037;28;39090;-84
2023/02/15 10:12:56;;;;;;;27.07;15.43;;;;;;;3.57;93.69;100281.06;5090724;28;42308;-86
2023/02/15 10:15:42;;;;;;;32.53;17.90;;;;;;;3.80;90.68;100289.53;5091355;28;43447;-85
2023/02/15 10:18:35;;;;;;;30.70;17.43;;;;;;;3.95;89.12;100281.47;5108284;28;40678;-82
2023/02/15 10:21:10;;;;;;;27.07;16.67;;;;;;;4.06;87.90;100294.44;5091054;28;39265;-80
2023/02/15 10:23:56;;;;;;;25.50;14.97;;;;;;;4.11;87.38;100291.72;5107329;28;40860;-84
2023/02/15 10:26:32;;;;;;;29.87;17.30;;;;;;;4.20;86.15;100283.75;5108864;28;42563;-81
2023/02/15 10:29:08;;;;;;;28.83;15.40;;;;;;;4.24;85.83;100269.69;5104349;28;42511;-78
2023/02/15 10:31:46;;;;;;;26.80;15.37;;;;;;;4.30;84.42;100261.75;5105917;28;40015;-80
2023/02/15 10:34:18;;;;;;;25.97;16.27;;;;;;;4.49;82.63;100289.44;5090674;28;40793;-83
2023/02/15 10:37:07;;;;;;;25.67;16.13;;;;;;;4.42;82.45;100266.81;5091399;28;41786;-80
2023/02/15 10:39:44;;;;;;;27.23;15.73;;;;;;;4.50;82.63;100264.06;5105160;28;42118;-79
2023/02/15 10:42:21;;;;;;;25.50;16.10;;;;;;;4.57;81.23;100261.34;5104945;28;39973;-81
2023/02/15 10:45:11;;;;;;;32.37;17.27;;;;;;;4.72;79.33;100282.97;5105362;28;41737;-79
2023/02/15 10:48:11;;;;;;;24.10;14.60;;;;;;;4.77;79.33;100278.53;5089909;28;43589;-82
2023/02/15 10:50:50;;;;;;;28.33;15.37;;;;;;;4.60;79.72;100244.66;5106766;28;43115;-82
2023/02/15 10:53:40;;;;;;;24.90;14.93;;;;;;;4.68;78.69;100267.28;5090261;28;39635;-84
2023/02/15 10:56:19;;;;;;;27.57;15.00;;;;;;;4.82;78.85;100287.19;5090087;28;40793;-84
2023/02/15 10:59:05;;;;;;;28.57;15.97;;;;;;;4.75;77.74;100275.03;5090506;28;43206;-84
2023/02/15 11:01:42;;;;;;;28.33;17.13;;;;;;;4.82;77.08;100288.03;5090905;28;42067;-81
2023/02/15 11:04:38;;;;;;;26.60;16.00;;;;;;;4.88;77.30;100287.09;5105302;28;40544;-83
2023/02/15 11:07:14;;;;;;;30.70;17.33;;;;;;;4.87;76.63;100285.34;5098356;28;40983;-82
2023/02/15 11:09:46;;;;;;;26.00;16.47;;;;;;;4.97;77.72;100274.66;5093393;28;43865;-84
2023/02/15 11:12:18;;;;;;;29.87;17.20;;;;;;;5.03;76.62;100277.19;5076494;28;42388;-83
2023/02/15 11:14:50;;;;;;;26.80;15.90;;;;;;;5.19;76.46;100292.69;5091347;28;40535;-84
2023/02/15 11:17:24;;;;;;;24.53;15.47;;;;;;;5.21;76.30;100281.25;5076009;28;43487;-84
2023/02/15 11:20:02;;;;;;;27.73;16.67;;;;;;;5.10;75.33;100272.69;5076429;28;42102;-84
2023/02/15 11:22:32;;;;;;;24.37;15.23;;;;;;;5.10;75.91;100267.44;5075752;28;43293;-81
2023/02/15 11:25:02;;;;;;;24.40;15.27;;;;;;;5.27;76.04;100273.25;5076319;28;39110;-83
2023/02/15 11:27:33;;;;;;;25.30;15.53;;;;;;;5.28;76.36;100261.00;5076087;28;41094;-83
2023/02/15 11:30:05;;;;;;;26.20;15.37;;;;;;;5.48;76.04;100268.50;5076112;28;42706;-83
2023/02/15 11:32:38;;;;;;;27.83;15.83;;;;;;;5.55;75.36;100275.38;5089838;28;43463;-85
2023/02/15 11:35:21;;;;;;;23.97;15.13;;;;;;;5.47;74.44;100262.38;5076384;28;38966;-85
2023/02/15 11:37:54;;;;;;;24.80;15.10;;;;;;;5.64;74.10;100285.69;5076100;28;41041;-86
2023/02/15 11:40:25;;;;;;;25.27;16.70;;;;;;;5.65;74.07;100272.53;5093144;28;42278;-87
2023/02/15 11:42:57;;;;;;;26.63;16.77;;;;;;;5.77;74.08;100280.16;5076036;28;42553;-86
2023/02/15 11:45:30;;;;;;;26.53;16.10;;;;;;;5.74;73.41;100250.44;5076269;28;40453;-85
2023/02/15 11:48:00;;;;;;;27.30;16.60;;;;;;;5.92;72.28;100265.00;5075983;28;42290;-86
2023/02/15 11:50:30;;;;;;;34.67;18.37;;;;;;;5.93;72.96;100249.22;5076025;28;41910;-85
2023/02/15 11:53:01;;;;;;;24.47;16.07;;;;;;;5.98;72.66;100242.06;5075936;28;42849;-86
2023/02/15 11:55:30;;;;;;;25.97;16.93;;;;;;;6.08;72.12;100259.38;5075793;28;39709;-88
2023/02/15 11:58:03;;;;;;;25.27;16.40;;;;;;;6.10;71.62;100249.69;5075780;28;40793;-82
2023/02/15 12:00:37;;;;;;;25.57;16.07;;;;;;;6.08;71.13;100254.13;5075280;28;41919;-88
2023/02/15 12:03:20;;;;;;;28.67;17.53;;;;;;;6.07;71.39;100251.50;5075066;28;42622;-82
2023/02/15 12:05:54;;;;;;;28.63;17.63;;;;;;;6.13;71.68;100260.16;5075617;28;39195;-81
2023/02/15 12:08:23;;;;;;;23.80;15.43;;;;;;;6.22;71.73;100258.19;5089805;28;42370;-81
2023/02/15 12:11:01;;;;;;;29.00;17.50;;;;;;;6.21;70.71;100240.69;5074863;28;41200;-82
2023/02/15 12:13:29;;;;;;;29.47;17.53;;;;;;;6.29;70.35;100260.69;5091720;28;41681;-83
2023/02/15 12:16:00;;;;;;;30.03;16.93;;;;;;;6.26;70.19;100260.75;5075248;28;39493;-85
2023/02/15 12:18:45;;;;;;;29.20;17.13;;;;;;;6.32;70.45;100257.09;5073865;28;40972;-83
2023/02/15 12:21:16;;;;;;;26.47;16.43;;;;;;;6.30;70.71;100243.13;5090664;28;43115;-82
2023/02/15 12:23:49;;;;;;;24.60;16.20;;;;;;;6.26;70.99;100233.56;5075174;28;42467;-82
2023/02/15 12:26:25;;;;;;;32.13;18.23;;;;;;;6.37;70.53;100261.38;5092365;28;40671;-82
2023/02/15 12:28:57;;;;;;;31.87;18.43;;;;;;;6.31;70.29;100234.31;5090048;28;42654;-84
2023/02/15 12:31:34;;;;;;;30.60;18.17;;;;;;;6.43;69.70;100262.97;5092723;28;42689;-84
2023/02/15 12:34:10;;;;;;;28.77;17.47;;;;;;;6.29;69.80;100222.97;5092342;28;41427;-88
2023/02/15 12:36:46;;;;;;;26.43;17.37;;;;;;;6.42;70.19;100235.81;5075816;28;38969;-87
2023/02/15 12:39:20;;;;;;;29.70;18.77;;;;;;;6.58;69.35;100245.97;5074995;28;42101;-84
2023/02/15 12:42:00;;;;;;;30.43;18.27;;;;;;;6.59;69.43;100247.69;5075478;28;42949;-87
2023/02/15 12:44:30;;;;;;;30.67;17.93;;;;;;;6.62;69.92;100248.50;5071321;28;42407;-83
2023/02/15 12:47:01;;;;;;;29.93;17.63;;;;;;;6.66;70.27;100237.00;5074290;28;40092;-86
2023/02/15 12:49:32;;;;;;;35.57;20.33;;;;;;;6.70;69.46;100232.50;5087187;28;41714;-86
2023/02/15 12:52:02;;;;;;;28.53;18.57;;;;;;;6.67;68.92;100241.34;5090775;28;44583;-85
2023/02/15 12:54:39;;;;;;;32.73;17.80;;;;;;;6.64;68.61;100240.56;5072762;28;41502;-82
2023/02/15 12:57:21;;;;;;;30.67;17.77;;;;;;;6.53;69.08;100229.44;5074074;28;40417;-85
2023/02/15 12:59:51;;;;;;;27.03;17.70;;;;;;;6.50;69.25;100217.19;5090649;28;40828;-84
2023/02/15 13:02:25;;;;;;;26.70;17.57;;;;;;;6.63;69.50;100234.44;5069859;28;41464;-83
2023/02/15 13:04:56;;;;;;;31.23;18.93;;;;;;;6.72;69.66;100228.06;5086342;28;41934;-82
2023/02/15 13:07:26;;;;;;;30.63;17.27;;;;;;;6.79;69.21;100217.34;5088315;28;41143;-84
2023/02/15 13:09:54;;;;;;;27.00;17.50;;;;;;;6.70;68.16;100204.41;5091051;28;42175;-84
2023/02/15 13:12:26;;;;;;;30.33;18.27;;;;;;;6.73;67.95;100204.34;5073614;28;41734;-86
2023/02/15 13:14:56;;;;;;;28.53;17.47;;;;;;;6.67;67.99;100188.72;5073816;28;41070;-85
2023/02/15 13:17:29;;;;;;;27.23;18.73;;;;;;;6.78;68.04;100194.56;5090327;28;40042;-88
2023/02/15 13:20:03;;;;;;;26.23;17.93;;;;;;;6.96;68.13;100205.50;5073131;28;42269;-88
2023/02/15 13:22:41;;;;;;;25.57;17.40;;;;;;;7.05;67.71;100206.13;5072645;28;44178;-84
2023/02/15 13:25:15;;;;;;;24.97;17.57;;;;;;;7.12;67.35;100199.78;5073576;28;41509;-83
2023/02/15 13:27:45;;;;;;;29.33;18.20;;;;;;;7.13;67.00;100182.22;5086607;28;40757;-84
2023/02/15 13:30:25;;;;;;;27.80;18.03;;;;;;;7.36;66.84;100200.91;5073534;28;40572;-85
2023/02/15 13:32:57;;;;;;;27.70;17.23;;;;;;;7.30;66.17;100185.22;5083492;28;43854;-86
2023/02/15 13:35:34;;;;;;;26.57;17.23;;;;;;;7.35;66.00;100199.16;5073224;28;41852;-86
2023/02/15 13:38:23;;;;;;;26.73;17.53;;;;;;;7.37;65.85;100192.09;5072842;28;39067;-86
2023/02/15 13:40:56;;;;;;;29.60;18.13;;;;;;;7.36;65.71;100190.34;5087506;28;41720;-83
2023/02/15 13:43:37;;;;;;;25.73;17.43;;;;;;;7.27;65.10;100193.25;5068874;28;42270;-85
2023/02/15 13:46:14;;;;;;;28.20;17.63;;;;;;;7.10;65.09;100177.91;5073372;28;42127;-84
2023/02/15 13:48:53;;;;;;;27.60;18.07;;;;;;;7.14;64.83;100191.84;5086435;28;40236;-83
2023/02/15 13:51:30;;;;;;;27.60;18.27;;;;;;;6.97;65.69;100165.09;5068817;28;40757;-82
2023/02/15 13:54:22;;;;;;;25.37;17.50;;;;;;;7.06;65.95;100175.38;5086789;28;41433;-84
2023/02/15 13:57:02;;;;;;;31.93;18.70;;;;;;;7.05;66.39;100153.44;5085699;28;42687;-83
2023/02/15 13:59:51;;;;;;;26.97;17.10;;;;;;;7.18;66.76;100159.22;5086532;28;40912;-82
2023/02/15 14:02:39;;;;;;;27.90;17.43;;;;;;;7.37;66.43;100172.78;5087812;28;41780;-82
2023/02/15 14:05:29;;;;;;;27.90;17.53;;;;;;;7.42;65.81;100169.06;5070005;28;42385;-81
2023/02/15 14:08:11;;;;;;;26.40;17.70;;;;;;;7.35;65.16;100166.69;5086012;28;41104;-85
2023/02/15 14:11:00;;;;;;;26.93;17.60;;;;;;;7.32;65.52;100159.72;5088943;28;40119;-81
2023/02/15 14:14:05;;;;;;;25.53;17.67;;;;;;;7.45;65.66;100157.59;5067824;28;42074;-81
2023/02/15 14:16:42;;;;;;;30.00;19.20;;;;;;;7.60;65.77;100151.88;5070830;28;41800;-82
2023/02/15 14:19:22;;;;;;;30.37;18.63;;;;;;;7.63;65.76;100149.16;5071251;28;41128;-84
2023/02/15 14:21:56;;;;;;;27.53;17.43;;;;;;;7.56;64.39;100140.53;5089682;28;39228;-82
2023/02/15 14:24:35;;;;;;;24.90;16.17;;;;;;;7.62;64.96;100138.66;5088977;28;40647;-88
2023/02/15 14:27:21;;;;;;;27.77;17.33;;;;;;;7.43;65.02;100106.69;5069628;28;43781;-85
2023/02/15 14:29:53;;;;;;;23.93;16.40;;;;;;;7.76;64.74;100144.38;5072332;28;42700;-90
2023/02/15 14:32:29;;;;;;;26.07;18.63;;;;;;;7.81;64.40;100142.44;5086494;28;40567;-83
2023/02/15 14:34:59;;;;;;;27.17;17.30;;;;;;;7.96;64.23;100149.88;5083695;28;42120;-84
2023/02/15 14:37:40;;;;;;;26.47;17.97;;;;;;;7.93;63.62;100149.97;5090174;28;42628;-87
2023/02/15 14:43:28;;;;;;;27.00;17.50;;;;;;;7.68;63.80;100138.44;4977821;28;39107;-91
2023/02/15 14:46:01;;;;;;;26.47;18.53;;;;;;;7.62;64.16;100143.91;5057361;28;41219;-85
2023/02/15 14:48:32;;;;;;;23.80;16.67;;;;;;;7.69;64.54;100150.72;5071044;28;41536;-84
2023/02/15 14:51:01;;;;;;;24.57;17.83;;;;;;;7.75;64.82;100150.56;5093064;28;41329;-84
2023/02/15 14:53:41;;;;;;;26.40;17.27;;;;;;;7.72;64.49;100145.38;5075313;28;40133;-87
2023/02/15 14:56:26;;;;;;;27.87;17.83;;;;;;;7.72;64.84;100135.69;5075796;28;40473;-83
2023/02/15 14:59:19;;;;;;;24.50;16.77;;;;;;;7.89;64.05;100154.50;5085194;28;43038;-85
2023/02/15 15:01:58;;;;;;;27.23;16.80;;;;;;;7.95;64.75;100156.06;5093404;28;42047;-86
2023/02/15 15:04:31;;;;;;;23.80;15.70;;;;;;;7.98;64.58;100155.97;5089553;28;40113;-85
2023/02/15 15:07:03;;;;;;;26.07;16.83;;;;;;;7.90;64.87;100140.41;5089135;28;40278;-83
2023/02/15 15:09:35;;;;;;;26.50;17.47;;;;;;;7.88;64.81;100136.94;5089099;28;42977;-83
2023/02/15 15:12:35;;;;;;;26.07;17.07;;;;;;;7.90;64.92;100129.00;5075517;28;42408;-89
2023/02/15 15:15:06;;;;;;;25.10;16.87;;;;;;;7.90;65.14;100124.59;5086413;28;40975;-85
2023/02/15 15:17:53;;;;;;;26.20;17.23;;;;;;;7.86;64.60;100148.44;5075269;28;44218;-87
2023/02/15 15:20:41;;;;;;;26.37;16.73;;;;;;;7.71;65.06;100144.50;5076226;28;43104;-86
2023/02/15 15:23:39;;;;;;;25.57;16.97;;;;;;;7.58;65.43;100149.28;5090714;28;42826;-84
2023/02/15 15:26:23;;;;;;;26.97;17.73;;;;;;;7.50;65.84;100146.00;5089341;28;39880;-87
2023/02/15 15:28:56;;;;;;;26.13;17.07;;;;;;;7.44;65.50;100133.00;5092643;28;42179;-83
2023/02/15 15:31:33;;;;;;;27.13;18.37;;;;;;;7.29;65.79;100125.56;5093065;28;41903;-84
2023/02/15 15:34:22;;;;;;;28.00;18.87;;;;;;;7.19;66.13;100110.91;5070915;28;41325;-84
2023/02/15 15:37:44;;;;;;;30.67;19.10;;;;;;;7.15;66.31;100115.41;5089795;28;41007;-86
2023/02/15 15:40:42;;;;;;;25.27;17.53;;;;;;;6.96;66.73;100110.69;5047930;28;40787;-84
2023/02/15 15:43:43;;;;;;;30.37;18.83;;;;;;;6.87;66.98;100108.31;5072379;28;42052;-86
2023/02/15 15:46:49;;;;;;;27.53;17.47;;;;;;;6.71;67.43;100106.09;5090218;28;43163;-82
2023/02/15 15:49:21;;;;;;;27.67;18.40;;;;;;;6.57;68.12;100097.69;5022653;28;39038;-84
2023/02/15 15:51:50;;;;;;;31.27;19.50;;;;;;;6.37;68.24;100084.22;5092250;28;42193;-81
2023/02/15 15:54:21;;;;;;;30.63;19.30;;;;;;;6.29;68.85;100097.56;5090018;28;42836;-85
2023/02/15 15:56:52;;;;;;;28.93;18.43;;;;;;;6.12;69.42;100100.59;5074470;28;41133;-82
2023/02/15 15:59:24;;;;;;;28.70;18.63;;;;;;;5.92;69.97;100100.25;5074756;28;39209;-81
2023/02/15 16:01:52;;;;;;;30.03;17.77;;;;;;;5.72;70.46;100091.91;5090252;28;42066;-84
2023/02/15 16:04:30;;;;;;;30.03;18.90;;;;;;;5.56;71.08;100082.66;5071622;28;41759;-83
2023/02/15 16:07:01;;;;;;;29.70;18.40;;;;;;;5.37;71.19;100079.56;5055751;28;42247;-80
2023/02/15 16:09:29;;;;;;;29.50;18.60;;;;;;;5.07;71.72;100058.28;5074859;28;39005;-84
2023/02/15 16:12:01;;;;;;;30.27;18.40;;;;;;;5.04;71.93;100079.38;5092977;28;41076;-84
2023/02/15 16:14:33;;;;;;;29.13;18.30;;;;;;;4.92;72.46;100084.88;5075140;28;41779;-87
2023/02/15 16:17:05;;;;;;;28.87;18.77;;;;;;;4.76;73.34;100087.84;5092856;28;43079;-88
2023/02/15 16:19:38;;;;;;;30.93;19.43;;;;;;;4.64;72.99;100094.19;5075147;28;38984;-85
2023/02/15 16:22:16;;;;;;;27.73;17.20;;;;;;;4.42;73.19;100082.34;5075955;28;42149;-85
2023/02/15 16:25:19;;;;;;;26.43;16.87;;;;;;;4.19;73.55;100072.28;5072706;28;43061;-86
2023/02/15 16:27:48;;;;;;;31.47;17.60;;;;;;;4.12;74.16;100079.38;5056144;28;42884;-82
2023/02/15 16:30:30;;;;;;;30.17;18.87;;;;;;;4.12;74.40;100099.47;5055654;28;39135;-84
2023/02/15 16:33:07;;;;;;;30.57;18.77;;;;;;;3.79;75.09;100058.97;5058051;28;40961;-87
2023/02/15 16:35:38;;;;;;;31.90;20.07;;;;;;;3.82;76.19;100083.38;5073294;28;41833;-87
2023/02/15 16:38:10;;;;;;;30.90;19.90;;;;;;;3.68;76.94;100081.84;5056409;28;43822;-86
2023/02/15 16:40:53;;;;;;;29.80;18.73;;;;;;;3.49;76.75;100065.50;5055635;28;39415;-89
2023/02/15 16:43:27;;;;;;;28.90;17.80;;;;;;;3.53;77.01;100085.53;5055636;28;40729;-85
2023/02/15 16:46:04;;;;;;;31.17;18.50;;;;;;;3.45;77.53;100087.41;5106318;28;42703;-89
2023/02/15 16:48:37;;;;;;;31.00;18.03;;;;;;;3.33;77.25;100080.59;5055831;28;42691;-85
2023/02/15 16:51:07;;;;;;;27.30;16.73;;;;;;;3.26;77.28;100086.78;5055841;28;39089;-83
2023/02/15 16:53:35;;;;;;;26.67;16.40;;;;;;;3.05;77.47;100068.75;5055735;28;40651;-87
2023/02/15 16:56:06;;;;;;;28.17;17.07;;;;;;;2.95;77.21;100062.78;5055169;28;43113;-85
2023/02/15 16:58:39;;;;;;;26.30;16.03;;;;;;;2.91;78.28;100066.31;5055507;28;43966;-88
2023/02/15 17:01:09;;;;;;;23.60;16.37;;;;;;;2.93;78.51;100081.97;5056446;28;40289;-85
2023/02/15 17:03:37;;;;;;;25.10;16.43;;;;;;;2.73;78.53;100062.13;5055289;28;40649;-85
2023/02/15 17:06:21;;;;;;;30.13;18.37;;;;;;;2.75;78.80;100083.06;5054941;28;42661;-87
2023/02/15 17:08:49;;;;;;;27.53;16.43;;;;;;;2.60;78.61;100064.94;5056058;28;41141;-87
2023/02/15 17:11:19;;;;;;;30.00;17.17;;;;;;;2.54;79.79;100060.63;5055388;28;39770;-85
2023/02/15 17:14:28;;;;;;;26.37;16.87;;;;;;;2.58;80.06;100071.94;5072312;28;40456;-85
2023/02/15 17:17:02;;;;;;;30.87;17.90;;;;;;;2.48;80.13;100074.63;5009107;28;43058;-83
2023/02/15 17:19:33;;;;;;;25.50;16.37;;;;;;;2.40;79.68;100079.06;5088475;28;42003;-83
2023/02/15 17:22:06;;;;;;;28.60;16.33;;;;;;;2.23;79.99;100060.06;5055472;28;39037;-84
2023/02/15 17:24:38;;;;;;;29.83;17.90;;;;;;;2.32;80.16;100091.38;5054450;28;43580;-81
2023/02/15 17:27:13;;;;;;;23.23;16.13;;;;;;;2.15;80.43;100069.72;5054928;28;41657;-85
2023/02/15 17:29:44;;;;;;;27.37;17.17;;;;;;;2.09;80.27;100077.63;5065232;28;41172;-80
2023/02/15 17:32:19;;;;;;;25.23;15.43;;;;;;;2.14;80.72;100083.69;5091679;28;41344;-81
2023/02/15 17:35:00;;;;;;;23.50;15.10;;;;;;;2.10;80.68;100084.59;5111008;28;43804;-82
2023/02/15 17:37:32;;;;;;;27.27;16.50;;;;;;;2.04;80.56;100095.97;5094272;28;44217;-81
2023/02/15 17:40:02;;;;;;;25.03;15.23;;;;;;;2.00;81.01;100098.59;5091978;28;42754;-80
2023/02/15 17:42:30;;;;;;;26.77;16.37;;;;;;;1.96;80.86;100103.00;5109697;28;40099;-80
2023/02/15 17:44:58;;;;;;;26.27;15.67;;;;;;;1.92;80.60;100100.41;5055374;28;41021;-82
2023/02/15 17:47:28;;;;;;;25.03;14.60;;;;;;;1.76;80.43;100079.63;5089637;28;42452;-80
2023/02/15 17:49:57;;;;;;;32.07;19.67;;;;;;;1.71;80.68;100081.44;5057332;28;40959;-83
2023/02/15 17:52:29;;;;;;;31.27;19.47;;;;;;;1.78;80.70;100103.13;5074106;28;39429;-83
2023/02/15 17:57:44;;;;;;;29.57;17.53;;;;;;;1.60;80.76;100096.31;5090089;28;41701;-82
2023/02/15 18:14:01;;;;;;;30.10;17.40;;;;;;;1.30;81.08;100092.13;5071406;28;40233;-83
2023/02/15 18:16:33;;;;;;;27.50;17.03;;;;;;;1.38;80.91;100107.72;5073355;28;40766;-81
2023/02/15 18:19:03;;;;;;;32.23;18.63;;;;;;;1.25;81.01;100091.25;5090341;28;42768;-85
2023/02/15 18:21:32;;;;;;;26.13;15.53;;;;;;;1.31;81.13;100106.03;5092809;28;41450;-84
2023/02/15 18:24:00;;;;;;;27.87;16.80;;;;;;;1.30;81.31;100105.16;5093471;28;39131;-84
2023/02/15 18:26:30;;;;;;;26.07;16.67;;;;;;;1.38;81.01;100105.97;5092482;28;40916;-83
2023/02/15 18:28:58;;;;;;;30.20;18.10;;;;;;;1.37;81.02;100096.41;5093269;28;42006;-82
2023/02/15 18:31:26;;;;;;;28.63;17.43;;;;;;;1.50;81.08;100110.25;5075414;28;41285;-83
2023/02/15 18:33:56;;;;;;;33.77;19.93;;;;;;;1.58;81.10;100116.31;5076038;28;39299;-84
2023/02/15 18:36:28;;;;;;;30.87;18.70;;;;;;;1.69;81.21;100113.63;5076386;28;41394;-84
2023/02/15 18:38:56;;;;;;;33.33;20.60;;;;;;;1.80;81.23;100107.47;5093188;28;41548;-82
2023/02/15 18:41:24;;;;;;;31.13;18.40;;;;;;;1.80;81.11;100089.19;5075382;28;41655;-82
2023/02/15 18:43:54;;;;;;;35.13;20.90;;;;;;;2.00;81.04;100101.22;5076396;28;39175;-82
2023/02/15 18:46:22;;;;;;;31.20;20.63;;;;;;;2.11;81.04;100112.44;5089086;28;40560;-83
2023/02/15 18:48:50;;;;;;;35.50;21.67;;;;;;;2.09;81.18;100086.34;5071704;28;41979;-83
2023/02/15 18:51:20;;;;;;;34.30;19.40;;;;;;;2.22;81.07;100088.84;5092556;28;41409;-84
2023/02/15 18:53:51;;;;;;;30.23;18.33;;;;;;;2.24;81.28;100085.31;5075734;28;39892;-83
2023/02/15 18:56:21;;;;;;;30.73;19.40;;;;;;;2.40;82.93;100084.31;5074769;28;42020;-84
2023/02/15 18:58:49;;;;;;;34.70;20.90;;;;;;;2.37;82.83;100071.25;5092875;28;43722;-84
2023/02/15 19:01:20;;;;;;;35.30;21.80;;;;;;;2.43;82.94;100073.81;5074730;28;41325;-84
2023/02/15 19:03:49;;;;;;;38.67;22.90;;;;;;;2.60;82.91;100085.88;5076044;28;39215;-84
